sensor_id;sensor_type;location;lat;lon;timestamp;P1;durP1;ratioP1;P2;durP2;ratioP2
15799;SDS011;8002;51.196;7.010;2024-01-16T00:00:07;12.43;;;9.60;;
15799;SDS011;8002;51.196;7.010;2024-01-16T00:02:34;11.67;;;9.87;;
15799;SDS011;8002;51.196;7.010;2024-01-16T00:05:00;12.37;;;9.50;;
15799;SDS011;8002;51.196;7.010;2024-01-16T00:07:26;11.63;;;9.53;;
15799;SDS011;8002;51.196;7.010;2024-01-16T00:09:53;11.63;;;9.73;;
15799;SDS011;8002;51.196;7.010;2024-01-16T00:12:19;14.13;;;10.30;;
15799;SDS011;8002;51.196;7.010;2024-01-16T00:14:45;13.60;;;9.87;;
15799;SDS011;8002;51.196;7.010;2024-01-16T00:17:13;11.90;;;9.23;;
15799;SDS011;8002;51.196;7.010;2024-01-16T00:19:39;10.33;;;9.20;;
15799;SDS011;8002;51.196;7.010;2024-01-16T00:22:06;11.67;;;8.97;;
15799;SDS011;8002;51.196;7.010;2024-01-16T00:24:32;10.63;;;8.40;;
15799;SDS011;8002;51.196;7.010;2024-01-16T00:26:58;10.77;;;8.50;;
15799;SDS011;8002;51.196;7.010;2024-01-16T00:29:25;11.20;;;8.33;;
15799;SDS011;8002;51.196;7.010;2024-01-16T00:31:51;10.40;;;7.87;;
15799;SDS011;8002;51.196;7.010;2024-01-16T00:34:19;8.63;;;7.33;;
15799;SDS011;8002;51.196;7.010;2024-01-16T00:36:45;9.33;;;8.33;;
15799;SDS011;8002;51.196;7.010;2024-01-16T00:39:11;8.77;;;7.93;;
15799;SDS011;8002;51.196;7.010;2024-01-16T00:41:38;10.27;;;7.57;;
15799;SDS011;8002;51.196;7.010;2024-01-16T00:44:04;8.33;;;7.50;;
15799;SDS011;8002;51.196;7.010;2024-01-16T00:46:32;9.07;;;6.77;;
15799;SDS011;8002;51.196;7.010;2024-01-16T00:48:59;9.13;;;7.93;;
15799;SDS011;8002;51.196;7.010;2024-01-16T00:51:26;12.70;;;8.00;;
15799;SDS011;8002;51.196;7.010;2024-01-16T00:53:53;8.37;;;7.47;;
15799;SDS011;8002;51.196;7.010;2024-01-16T00:56:19;8.40;;;7.07;;
15799;SDS011;8002;51.196;7.010;2024-01-16T00:58:45;8.80;;;7.87;;
15799;SDS011;8002;51.196;7.010;2024-01-16T01:01:12;11.60;;;8.17;;
15799;SDS011;8002;51.196;7.010;2024-01-16T01:03:38;11.17;;;8.53;;
15799;SDS011;8002;51.196;7.010;2024-01-16T01:06:04;8.90;;;7.90;;
15799;SDS011;8002;51.196;7.010;2024-01-16T01:08:32;8.70;;;7.80;;
15799;SDS011;8002;51.196;7.010;2024-01-16T01:10:59;9.90;;;7.73;;
15799;SDS011;8002;51.196;7.010;2024-01-16T01:13:25;8.67;;;7.43;;
15799;SDS011;8002;51.196;7.010;2024-01-16T01:15:51;10.47;;;7.43;;
15799;SDS011;8002;51.196;7.010;2024-01-16T01:18:18;10.60;;;8.17;;
15799;SDS011;8002;51.196;7.010;2024-01-16T01:20:44;8.17;;;7.37;;
15799;SDS011;8002;51.196;7.010;2024-01-16T01:23:11;9.37;;;7.97;;
15799;SDS011;8002;51.196;7.010;2024-01-16T01:25:38;8.67;;;7.77;;
15799;SDS011;8002;51.196;7.010;2024-01-16T01:28:05;9.67;;;8.73;;
15799;SDS011;8002;51.196;7.010;2024-01-16T01:30:31;9.87;;;8.87;;
15799;SDS011;8002;51.196;7.010;2024-01-16T01:32:57;10.73;;;9.50;;
15799;SDS011;8002;51.196;7.010;2024-01-16T01:35:24;12.20;;;9.13;;
15799;SDS011;8002;51.196;7.010;2024-01-16T01:37:50;10.50;;;9.40;;
15799;SDS011;8002;51.196;7.010;2024-01-16T01:40:16;11.60;;;9.10;;
15799;SDS011;8002;51.196;7.010;2024-01-16T01:42:44;13.50;;;10.43;;
15799;SDS011;8002;51.196;7.010;2024-01-16T01:45:10;12.53;;;10.77;;
15799;SDS011;8002;51.196;7.010;2024-01-16T01:47:37;13.60;;;10.23;;
15799;SDS011;8002;51.196;7.010;2024-01-16T01:50:04;13.00;;;10.40;;
15799;SDS011;8002;51.196;7.010;2024-01-16T01:52:31;13.40;;;11.47;;
15799;SDS011;8002;51.196;7.010;2024-01-16T01:54:58;13.00;;;10.60;;
15799;SDS011;8002;51.196;7.010;2024-01-16T01:57:24;13.60;;;10.77;;
15799;SDS011;8002;51.196;7.010;2024-01-16T01:59:52;14.53;;;11.00;;
15799;SDS011;8002;51.196;7.010;2024-01-16T02:02:18;13.30;;;11.40;;
15799;SDS011;8002;51.196;7.010;2024-01-16T02:04:46;14.30;;;11.77;;
15799;SDS011;8002;51.196;7.010;2024-01-16T02:07:13;16.13;;;11.33;;
15799;SDS011;8002;51.196;7.010;2024-01-16T02:09:40;14.53;;;10.60;;
15799;SDS011;8002;51.196;7.010;2024-01-16T02:12:07;14.27;;;10.60;;
15799;SDS011;8002;51.196;7.010;2024-01-16T02:14:34;12.53;;;10.93;;
15799;SDS011;8002;51.196;7.010;2024-01-16T02:17:02;13.97;;;10.47;;
15799;SDS011;8002;51.196;7.010;2024-01-16T02:19:28;11.93;;;9.87;;
15799;SDS011;8002;51.196;7.010;2024-01-16T02:21:57;12.10;;;10.63;;
15799;SDS011;8002;51.196;7.010;2024-01-16T02:24:26;12.20;;;9.77;;
15799;SDS011;8002;51.196;7.010;2024-01-16T02:26:52;14.17;;;10.10;;
15799;SDS011;8002;51.196;7.010;2024-01-16T02:29:19;10.90;;;9.30;;
15799;SDS011;8002;51.196;7.010;2024-01-16T02:31:45;12.90;;;9.33;;
15799;SDS011;8002;51.196;7.010;2024-01-16T02:34:12;13.37;;;9.63;;
15799;SDS011;8002;51.196;7.010;2024-01-16T02:36:38;11.27;;;9.50;;
15799;SDS011;8002;51.196;7.010;2024-01-16T02:39:04;11.63;;;10.37;;
15799;SDS011;8002;51.196;7.010;2024-01-16T02:41:33;12.87;;;9.67;;
15799;SDS011;8002;51.196;7.010;2024-01-16T02:43:59;13.03;;;10.70;;
15799;SDS011;8002;51.196;7.010;2024-01-16T02:46:25;13.13;;;10.50;;
15799;SDS011;8002;51.196;7.010;2024-01-16T02:48:51;11.07;;;9.83;;
15799;SDS011;8002;51.196;7.010;2024-01-16T02:51:18;13.37;;;10.47;;
15799;SDS011;8002;51.196;7.010;2024-01-16T02:53:44;12.03;;;10.60;;
15799;SDS011;8002;51.196;7.010;2024-01-16T02:56:10;12.30;;;10.20;;
15799;SDS011;8002;51.196;7.010;2024-01-16T02:58:38;14.43;;;10.47;;
15799;SDS011;8002;51.196;7.010;2024-01-16T03:01:04;12.33;;;11.03;;
15799;SDS011;8002;51.196;7.010;2024-01-16T03:03:31;13.93;;;10.50;;
15799;SDS011;8002;51.196;7.010;2024-01-16T03:05:57;14.80;;;11.73;;
15799;SDS011;8002;51.196;7.010;2024-01-16T03:08:24;12.60;;;10.53;;
15799;SDS011;8002;51.196;7.010;2024-01-16T03:10:50;11.90;;;10.23;;
15799;SDS011;8002;51.196;7.010;2024-01-16T03:13:17;13.73;;;12.23;;
15799;SDS011;8002;51.196;7.010;2024-01-16T03:15:44;12.57;;;11.27;;
15799;SDS011;8002;51.196;7.010;2024-01-16T03:18:11;14.70;;;10.67;;
15799;SDS011;8002;51.196;7.010;2024-01-16T03:20:37;15.00;;;10.30;;
15799;SDS011;8002;51.196;7.010;2024-01-16T03:23:04;15.17;;;10.93;;
15799;SDS011;8002;51.196;7.010;2024-01-16T03:25:30;12.70;;;11.20;;
15799;SDS011;8002;51.196;7.010;2024-01-16T03:27:57;15.50;;;10.23;;
15799;SDS011;8002;51.196;7.010;2024-01-16T03:30:24;12.63;;;10.23;;
15799;SDS011;8002;51.196;7.010;2024-01-16T03:32:51;13.07;;;10.50;;
15799;SDS011;8002;51.196;7.010;2024-01-16T03:35:18;11.67;;;9.60;;
15799;SDS011;8002;51.196;7.010;2024-01-16T03:37:44;15.93;;;10.63;;
15799;SDS011;8002;51.196;7.010;2024-01-16T03:40:10;12.93;;;10.13;;
15799;SDS011;8002;51.196;7.010;2024-01-16T03:42:37;12.43;;;10.10;;
15799;SDS011;8002;51.196;7.010;2024-01-16T03:45:05;12.37;;;9.17;;
15799;SDS011;8002;51.196;7.010;2024-01-16T03:47:32;14.70;;;9.83;;
15799;SDS011;8002;51.196;7.010;2024-01-16T03:49:59;11.43;;;9.60;;
15799;SDS011;8002;51.196;7.010;2024-01-16T03:52:26;12.03;;;8.57;;
15799;SDS011;8002;51.196;7.010;2024-01-16T03:54:52;11.23;;;9.43;;
15799;SDS011;8002;51.196;7.010;2024-01-16T03:57:18;12.47;;;9.37;;
15799;SDS011;8002;51.196;7.010;2024-01-16T03:59:45;11.00;;;9.20;;
15799;SDS011;8002;51.196;7.010;2024-01-16T04:02:12;10.70;;;9.63;;
15799;SDS011;8002;51.196;7.010;2024-01-16T04:04:39;9.90;;;8.73;;
15799;SDS011;8002;51.196;7.010;2024-01-16T04:07:07;11.03;;;8.40;;
15799;SDS011;8002;51.196;7.010;2024-01-16T04:09:33;11.63;;;8.33;;
15799;SDS011;8002;51.196;7.010;2024-01-16T04:12:00;10.40;;;7.87;;
15799;SDS011;8002;51.196;7.010;2024-01-16T04:14:26;10.87;;;8.37;;
15799;SDS011;8002;51.196;7.010;2024-01-16T04:16:52;10.87;;;8.10;;
15799;SDS011;8002;51.196;7.010;2024-01-16T04:19:19;9.30;;;8.30;;
15799;SDS011;8002;51.196;7.010;2024-01-16T04:21:45;9.50;;;7.70;;
15799;SDS011;8002;51.196;7.010;2024-01-16T04:24:13;9.17;;;8.27;;
15799;SDS011;8002;51.196;7.010;2024-01-16T04:26:39;8.60;;;7.67;;
15799;SDS011;8002;51.196;7.010;2024-01-16T04:29:05;9.87;;;8.37;;
15799;SDS011;8002;51.196;7.010;2024-01-16T04:31:35;9.73;;;6.90;;
15799;SDS011;8002;51.196;7.010;2024-01-16T04:34:04;9.10;;;7.47;;
15799;SDS011;8002;51.196;7.010;2024-01-16T04:36:31;9.47;;;6.93;;
15799;SDS011;8002;51.196;7.010;2024-01-16T04:38:57;8.67;;;7.10;;
15799;SDS011;8002;51.196;7.010;2024-01-16T04:41:25;9.40;;;7.33;;
15799;SDS011;8002;51.196;7.010;2024-01-16T04:43:51;8.10;;;7.30;;
15799;SDS011;8002;51.196;7.010;2024-01-16T04:46:17;7.23;;;6.50;;
15799;SDS011;8002;51.196;7.010;2024-01-16T04:48:44;8.90;;;7.13;;
15799;SDS011;8002;51.196;7.010;2024-01-16T04:51:10;7.80;;;6.63;;
15799;SDS011;8002;51.196;7.010;2024-01-16T04:53:36;7.90;;;7.07;;
15799;SDS011;8002;51.196;7.010;2024-01-16T04:56:03;7.53;;;6.63;;
15799;SDS011;8002;51.196;7.010;2024-01-16T04:58:31;8.37;;;7.47;;
15799;SDS011;8002;51.196;7.010;2024-01-16T05:00:58;8.47;;;6.63;;
15799;SDS011;8002;51.196;7.010;2024-01-16T05:03:24;8.30;;;6.90;;
15799;SDS011;8002;51.196;7.010;2024-01-16T05:05:50;9.90;;;8.23;;
15799;SDS011;8002;51.196;7.010;2024-01-16T05:08:17;8.50;;;7.60;;
15799;SDS011;8002;51.196;7.010;2024-01-16T05:10:43;9.67;;;8.27;;
15799;SDS011;8002;51.196;7.010;2024-01-16T05:13:09;8.30;;;7.10;;
15799;SDS011;8002;51.196;7.010;2024-01-16T05:15:39;10.03;;;7.23;;
15799;SDS011;8002;51.196;7.010;2024-01-16T05:18:07;10.13;;;8.30;;
15799;SDS011;8002;51.196;7.010;2024-01-16T05:20:34;9.37;;;8.40;;
15799;SDS011;8002;51.196;7.010;2024-01-16T05:23:00;12.10;;;9.63;;
15799;SDS011;8002;51.196;7.010;2024-01-16T05:25:27;12.30;;;8.87;;
15799;SDS011;8002;51.196;7.010;2024-01-16T05:27:53;11.67;;;8.67;;
15799;SDS011;8002;51.196;7.010;2024-01-16T05:30:19;10.17;;;8.20;;
15799;SDS011;8002;51.196;7.010;2024-01-16T05:32:47;9.27;;;8.20;;
15799;SDS011;8002;51.196;7.010;2024-01-16T05:35:13;9.50;;;8.50;;
15799;SDS011;8002;51.196;7.010;2024-01-16T05:37:40;11.73;;;8.53;;
15799;SDS011;8002;51.196;7.010;2024-01-16T05:40:06;12.37;;;8.63;;
15799;SDS011;8002;51.196;7.010;2024-01-16T05:42:33;11.17;;;8.90;;
15799;SDS011;8002;51.196;7.010;2024-01-16T05:44:59;9.70;;;8.50;;
15799;SDS011;8002;51.196;7.010;2024-01-16T05:47:26;11.00;;;8.80;;
15799;SDS011;8002;51.196;7.010;2024-01-16T05:49:54;13.93;;;9.30;;
15799;SDS011;8002;51.196;7.010;2024-01-16T05:52:20;13.30;;;9.50;;
15799;SDS011;8002;51.196;7.010;2024-01-16T05:54:47;10.67;;;9.13;;
15799;SDS011;8002;51.196;7.010;2024-01-16T05:57:13;12.03;;;9.17;;
15799;SDS011;8002;51.196;7.010;2024-01-16T05:59:39;12.60;;;8.67;;
15799;SDS011;8002;51.196;7.010;2024-01-16T06:02:06;10.50;;;8.23;;
15799;SDS011;8002;51.196;7.010;2024-01-16T06:04:33;12.87;;;8.53;;
15799;SDS011;8002;51.196;7.010;2024-01-16T06:07:00;10.97;;;7.57;;
15799;SDS011;8002;51.196;7.010;2024-01-16T06:09:27;11.60;;;7.07;;
15799;SDS011;8002;51.196;7.010;2024-01-16T06:11:53;8.20;;;7.00;;
15799;SDS011;8002;51.196;7.010;2024-01-16T06:14:20;10.13;;;7.17;;
15799;SDS011;8002;51.196;7.010;2024-01-16T06:16:46;9.37;;;6.53;;
15799;SDS011;8002;51.196;7.010;2024-01-16T06:19:13;15.17;;;6.50;;
15799;SDS011;8002;51.196;7.010;2024-01-16T06:21:39;11.47;;;6.80;;
15799;SDS011;8002;51.196;7.010;2024-01-16T06:24:07;8.40;;;5.87;;
15799;SDS011;8002;51.196;7.010;2024-01-16T06:26:33;8.80;;;6.17;;
15799;SDS011;8002;51.196;7.010;2024-01-16T06:29:00;9.00;;;5.50;;
15799;SDS011;8002;51.196;7.010;2024-01-16T06:31:26;8.37;;;5.00;;
15799;SDS011;8002;51.196;7.010;2024-01-16T06:33:52;10.03;;;5.37;;
15799;SDS011;8002;51.196;7.010;2024-01-16T06:36:19;6.70;;;5.10;;
15799;SDS011;8002;51.196;7.010;2024-01-16T06:38:45;8.47;;;5.27;;
15799;SDS011;8002;51.196;7.010;2024-01-16T06:41:13;8.57;;;5.00;;
15799;SDS011;8002;51.196;7.010;2024-01-16T06:43:39;8.80;;;4.83;;
15799;SDS011;8002;51.196;7.010;2024-01-16T06:46:05;14.33;;;5.20;;
15799;SDS011;8002;51.196;7.010;2024-01-16T06:48:33;10.53;;;5.83;;
15799;SDS011;8002;51.196;7.010;2024-01-16T06:51:00;7.70;;;4.80;;
15799;SDS011;8002;51.196;7.010;2024-01-16T06:53:27;10.00;;;4.07;;
15799;SDS011;8002;51.196;7.010;2024-01-16T06:55:53;9.17;;;4.50;;
15799;SDS011;8002;51.196;7.010;2024-01-16T06:58:20;7.13;;;4.37;;
15799;SDS011;8002;51.196;7.010;2024-01-16T07:00:46;8.63;;;4.67;;
15799;SDS011;8002;51.196;7.010;2024-01-16T07:03:13;8.97;;;4.07;;
15799;SDS011;8002;51.196;7.010;2024-01-16T07:05:39;7.80;;;4.03;;
15799;SDS011;8002;51.196;7.010;2024-01-16T07:08:07;8.57;;;4.30;;
15799;SDS011;8002;51.196;7.010;2024-01-16T07:10:34;6.83;;;4.57;;
15799;SDS011;8002;51.196;7.010;2024-01-16T07:13:00;16.33;;;4.77;;
15799;SDS011;8002;51.196;7.010;2024-01-16T07:15:28;8.77;;;4.90;;
15799;SDS011;8002;51.196;7.010;2024-01-16T07:17:54;11.80;;;5.97;;
15799;SDS011;8002;51.196;7.010;2024-01-16T07:20:21;8.03;;;4.87;;
15799;SDS011;8002;51.196;7.010;2024-01-16T07:22:47;8.20;;;4.20;;
15799;SDS011;8002;51.196;7.010;2024-01-16T07:25:13;10.63;;;4.17;;
15799;SDS011;8002;51.196;7.010;2024-01-16T07:27:40;6.90;;;4.03;;
15799;SDS011;8002;51.196;7.010;2024-01-16T07:30:07;6.97;;;4.00;;
15799;SDS011;8002;51.196;7.010;2024-01-16T07:32:35;5.07;;;3.60;;
15799;SDS011;8002;51.196;7.010;2024-01-16T07:35:01;7.07;;;3.47;;
15799;SDS011;8002;51.196;7.010;2024-01-16T07:37:28;4.60;;;3.63;;
15799;SDS011;8002;51.196;7.010;2024-01-16T07:39:54;8.30;;;3.13;;
15799;SDS011;8002;51.196;7.010;2024-01-16T07:42:20;9.03;;;4.23;;
15799;SDS011;8002;51.196;7.010;2024-01-16T07:44:47;5.43;;;3.63;;
15799;SDS011;8002;51.196;7.010;2024-01-16T07:47:13;5.07;;;3.13;;
15799;SDS011;8002;51.196;7.010;2024-01-16T07:49:41;7.30;;;3.97;;
15799;SDS011;8002;51.196;7.010;2024-01-16T07:52:08;6.63;;;3.00;;
15799;SDS011;8002;51.196;7.010;2024-01-16T07:54:34;6.60;;;2.90;;
15799;SDS011;8002;51.196;7.010;2024-01-16T07:57:01;6.33;;;3.07;;
15799;SDS011;8002;51.196;7.010;2024-01-16T07:59:27;7.40;;;3.50;;
15799;SDS011;8002;51.196;7.010;2024-01-16T08:01:53;6.77;;;4.07;;
15799;SDS011;8002;51.196;7.010;2024-01-16T08:04:20;7.57;;;3.10;;
15799;SDS011;8002;51.196;7.010;2024-01-16T08:06:48;5.73;;;3.13;;
15799;SDS011;8002;51.196;7.010;2024-01-16T08:09:14;7.30;;;3.77;;
15799;SDS011;8002;51.196;7.010;2024-01-16T08:11:40;6.63;;;3.13;;
15799;SDS011;8002;51.196;7.010;2024-01-16T08:14:07;7.10;;;3.03;;
15799;SDS011;8002;51.196;7.010;2024-01-16T08:16:33;4.93;;;2.83;;
15799;SDS011;8002;51.196;7.010;2024-01-16T08:18:59;6.97;;;2.93;;
15799;SDS011;8002;51.196;7.010;2024-01-16T08:21:26;4.83;;;2.50;;
15799;SDS011;8002;51.196;7.010;2024-01-16T08:23:53;5.73;;;3.00;;
15799;SDS011;8002;51.196;7.010;2024-01-16T08:26:20;3.90;;;2.97;;
15799;SDS011;8002;51.196;7.010;2024-01-16T08:28:46;8.03;;;3.30;;
15799;SDS011;8002;51.196;7.010;2024-01-16T08:31:12;10.73;;;3.60;;
15799;SDS011;8002;51.196;7.010;2024-01-16T08:33:39;5.33;;;2.43;;
15799;SDS011;8002;51.196;7.010;2024-01-16T08:36:05;7.97;;;3.40;;
15799;SDS011;8002;51.196;7.010;2024-01-16T08:38:31;7.90;;;2.90;;
15799;SDS011;8002;51.196;7.010;2024-01-16T08:40:59;7.20;;;3.40;;
15799;SDS011;8002;51.196;7.010;2024-01-16T08:43:25;8.70;;;2.80;;
15799;SDS011;8002;51.196;7.010;2024-01-16T08:45:52;4.50;;;2.70;;
15799;SDS011;8002;51.196;7.010;2024-01-16T08:48:18;8.70;;;2.43;;
15799;SDS011;8002;51.196;7.010;2024-01-16T08:50:44;5.53;;;2.50;;
15799;SDS011;8002;51.196;7.010;2024-01-16T08:53:11;5.37;;;2.70;;
15799;SDS011;8002;51.196;7.010;2024-01-16T08:55:37;6.50;;;2.47;;
15799;SDS011;8002;51.196;7.010;2024-01-16T08:58:05;3.53;;;2.13;;
15799;SDS011;8002;51.196;7.010;2024-01-16T09:00:31;5.67;;;2.90;;
15799;SDS011;8002;51.196;7.010;2024-01-16T09:02:58;7.33;;;2.53;;
15799;SDS011;8002;51.196;7.010;2024-01-16T09:05:24;5.57;;;3.20;;
15799;SDS011;8002;51.196;7.010;2024-01-16T09:07:51;7.47;;;3.47;;
15799;SDS011;8002;51.196;7.010;2024-01-16T09:10:17;5.17;;;2.80;;
15799;SDS011;8002;51.196;7.010;2024-01-16T09:12:43;5.17;;;2.70;;
15799;SDS011;8002;51.196;7.010;2024-01-16T09:15:11;6.67;;;3.53;;
15799;SDS011;8002;51.196;7.010;2024-01-16T09:17:38;4.60;;;2.87;;
15799;SDS011;8002;51.196;7.010;2024-01-16T09:20:05;8.07;;;2.70;;
15799;SDS011;8002;51.196;7.010;2024-01-16T09:22:32;4.90;;;2.60;;
15799;SDS011;8002;51.196;7.010;2024-01-16T09:24:58;4.73;;;2.30;;
15799;SDS011;8002;51.196;7.010;2024-01-16T09:27:26;4.37;;;2.40;;
15799;SDS011;8002;51.196;7.010;2024-01-16T09:29:52;5.27;;;2.17;;
15799;SDS011;8002;51.196;7.010;2024-01-16T09:32:20;5.23;;;3.50;;
15799;SDS011;8002;51.196;7.010;2024-01-16T09:34:46;6.53;;;2.47;;
15799;SDS011;8002;51.196;7.010;2024-01-16T09:37:12;5.53;;;2.53;;
15799;SDS011;8002;51.196;7.010;2024-01-16T09:39:39;4.97;;;2.80;;
15799;SDS011;8002;51.196;7.010;2024-01-16T09:42:06;7.43;;;2.23;;
15799;SDS011;8002;51.196;7.010;2024-01-16T09:44:32;5.47;;;2.43;;
15799;SDS011;8002;51.196;7.010;2024-01-16T09:47:00;6.37;;;3.03;;
15799;SDS011;8002;51.196;7.010;2024-01-16T09:49:30;7.67;;;2.90;;
15799;SDS011;8002;51.196;7.010;2024-01-16T09:51:56;5.27;;;2.83;;
15799;SDS011;8002;51.196;7.010;2024-01-16T09:54:24;8.00;;;2.60;;
15799;SDS011;8002;51.196;7.010;2024-01-16T09:56:51;5.43;;;3.00;;
15799;SDS011;8002;51.196;7.010;2024-01-16T09:59:19;4.97;;;2.80;;
15799;SDS011;8002;51.196;7.010;2024-01-16T10:01:46;4.90;;;3.30;;
15799;SDS011;8002;51.196;7.010;2024-01-16T10:04:14;3.80;;;2.33;;
15799;SDS011;8002;51.196;7.010;2024-01-16T10:06:42;4.30;;;2.40;;
15799;SDS011;8002;51.196;7.010;2024-01-16T10:09:11;4.93;;;2.33;;
15799;SDS011;8002;51.196;7.010;2024-01-16T10:11:38;4.50;;;2.90;;
15799;SDS011;8002;51.196;7.010;2024-01-16T10:14:05;5.03;;;2.80;;
15799;SDS011;8002;51.196;7.010;2024-01-16T10:19:13;6.87;;;2.70;;
15799;SDS011;8002;51.196;7.010;2024-01-16T10:21:39;5.30;;;2.73;;
15799;SDS011;8002;51.196;7.010;2024-01-16T10:24:12;6.97;;;3.37;;
15799;SDS011;8002;51.196;7.010;2024-01-16T10:26:38;7.27;;;2.90;;
15799;SDS011;8002;51.196;7.010;2024-01-16T10:29:04;6.37;;;2.50;;
15799;SDS011;8002;51.196;7.010;2024-01-16T10:31:31;5.40;;;2.50;;
15799;SDS011;8002;51.196;7.010;2024-01-16T10:33:57;3.57;;;2.53;;
15799;SDS011;8002;51.196;7.010;2024-01-16T10:36:23;4.40;;;3.07;;
15799;SDS011;8002;51.196;7.010;2024-01-16T10:38:51;5.83;;;2.50;;
15799;SDS011;8002;51.196;7.010;2024-01-16T10:41:23;6.83;;;2.70;;
15799;SDS011;8002;51.196;7.010;2024-01-16T10:43:51;4.27;;;2.70;;
15799;SDS011;8002;51.196;7.010;2024-01-16T10:46:29;4.67;;;2.80;;
15799;SDS011;8002;51.196;7.010;2024-01-16T10:48:58;6.10;;;2.73;;
15799;SDS011;8002;51.196;7.010;2024-01-16T10:51:26;5.93;;;2.50;;
15799;SDS011;8002;51.196;7.010;2024-01-16T10:53:53;6.90;;;2.87;;
15799;SDS011;8002;51.196;7.010;2024-01-16T10:56:25;6.70;;;2.67;;
15799;SDS011;8002;51.196;7.010;2024-01-16T10:58:55;4.30;;;2.20;;
15799;SDS011;8002;51.196;7.010;2024-01-16T11:01:23;3.60;;;2.20;;
15799;SDS011;8002;51.196;7.010;2024-01-16T11:03:50;5.50;;;2.80;;
15799;SDS011;8002;51.196;7.010;2024-01-16T11:06:18;7.17;;;2.80;;
15799;SDS011;8002;51.196;7.010;2024-01-16T11:08:45;3.93;;;2.60;;
15799;SDS011;8002;51.196;7.010;2024-01-16T11:11:12;8.57;;;3.10;;
15799;SDS011;8002;51.196;7.010;2024-01-16T11:13:40;4.40;;;2.73;;
15799;SDS011;8002;51.196;7.010;2024-01-16T11:16:10;6.73;;;2.80;;
15799;SDS011;8002;51.196;7.010;2024-01-16T11:18:36;5.47;;;2.90;;
15799;SDS011;8002;51.196;7.010;2024-01-16T11:21:04;8.80;;;3.60;;
15799;SDS011;8002;51.196;7.010;2024-01-16T11:23:31;4.90;;;2.60;;
15799;SDS011;8002;51.196;7.010;2024-01-16T11:25:57;6.77;;;3.40;;
15799;SDS011;8002;51.196;7.010;2024-01-16T11:28:26;6.47;;;3.27;;
15799;SDS011;8002;51.196;7.010;2024-01-16T11:30:55;3.83;;;2.40;;
15799;SDS011;8002;51.196;7.010;2024-01-16T11:36:06;5.30;;;3.10;;
15799;SDS011;8002;51.196;7.010;2024-01-16T11:38:56;5.07;;;3.30;;
15799;SDS011;8002;51.196;7.010;2024-01-16T11:44:04;4.30;;;2.93;;
15799;SDS011;8002;51.196;7.010;2024-01-16T11:46:35;7.27;;;3.60;;
15799;SDS011;8002;51.196;7.010;2024-01-16T11:49:22;6.87;;;3.00;;
15799;SDS011;8002;51.196;7.010;2024-01-16T11:51:48;7.50;;;3.60;;
15799;SDS011;8002;51.196;7.010;2024-01-16T11:54:15;5.33;;;3.23;;
15799;SDS011;8002;51.196;7.010;2024-01-16T11:56:46;6.30;;;3.00;;
15799;SDS011;8002;51.196;7.010;2024-01-16T11:59:18;3.13;;;2.83;;
15799;SDS011;8002;51.196;7.010;2024-01-16T12:01:52;5.57;;;3.17;;
15799;SDS011;8002;51.196;7.010;2024-01-16T12:04:19;7.57;;;3.30;;
15799;SDS011;8002;51.196;7.010;2024-01-16T12:06:56;5.67;;;2.53;;
15799;SDS011;8002;51.196;7.010;2024-01-16T12:09:25;6.57;;;2.73;;
15799;SDS011;8002;51.196;7.010;2024-01-16T12:11:55;5.70;;;2.63;;
15799;SDS011;8002;51.196;7.010;2024-01-16T12:14:22;6.33;;;2.87;;
15799;SDS011;8002;51.196;7.010;2024-01-16T12:16:48;5.77;;;2.80;;
15799;SDS011;8002;51.196;7.010;2024-01-16T12:19:16;4.60;;;2.70;;
15799;SDS011;8002;51.196;7.010;2024-01-16T12:21:43;4.90;;;3.10;;
15799;SDS011;8002;51.196;7.010;2024-01-16T12:24:09;5.40;;;2.57;;
15799;SDS011;8002;51.196;7.010;2024-01-16T12:26:36;6.00;;;2.93;;
15799;SDS011;8002;51.196;7.010;2024-01-16T12:29:02;4.73;;;2.83;;
15799;SDS011;8002;51.196;7.010;2024-01-16T12:31:29;6.82;;;3.22;;
15799;SDS011;8002;51.196;7.010;2024-01-16T12:34:05;6.10;;;2.95;;
15799;SDS011;8002;51.196;7.010;2024-01-16T12:36:33;6.93;;;3.22;;
15799;SDS011;8002;51.196;7.010;2024-01-16T12:39:00;9.17;;;3.20;;
15799;SDS011;8002;51.196;7.010;2024-01-16T12:41:27;7.40;;;3.10;;
15799;SDS011;8002;51.196;7.010;2024-01-16T12:43:54;8.13;;;3.23;;
15799;SDS011;8002;51.196;7.010;2024-01-16T12:46:20;6.13;;;3.50;;
15799;SDS011;8002;51.196;7.010;2024-01-16T12:48:46;5.40;;;2.87;;
15799;SDS011;8002;51.196;7.010;2024-01-16T12:51:19;7.33;;;3.13;;
15799;SDS011;8002;51.196;7.010;2024-01-16T12:53:47;6.57;;;3.07;;
15799;SDS011;8002;51.196;7.010;2024-01-16T12:56:17;4.37;;;3.10;;
15799;SDS011;8002;51.196;7.010;2024-01-16T12:58:44;4.83;;;3.03;;
15799;SDS011;8002;51.196;7.010;2024-01-16T13:01:23;5.97;;;3.10;;
15799;SDS011;8002;51.196;7.010;2024-01-16T13:03:50;5.53;;;3.20;;
15799;SDS011;8002;51.196;7.010;2024-01-16T13:06:17;4.93;;;2.90;;
15799;SDS011;8002;51.196;7.010;2024-01-16T13:08:43;5.67;;;3.23;;
15799;SDS011;8002;51.196;7.010;2024-01-16T13:11:11;4.70;;;2.60;;
15799;SDS011;8002;51.196;7.010;2024-01-16T13:13:40;6.93;;;3.30;;
15799;SDS011;8002;51.196;7.010;2024-01-16T13:16:07;9.00;;;2.90;;
15799;SDS011;8002;51.196;7.010;2024-01-16T13:18:33;5.97;;;3.57;;
15799;SDS011;8002;51.196;7.010;2024-01-16T13:21:00;6.10;;;3.60;;
15799;SDS011;8002;51.196;7.010;2024-01-16T13:23:27;7.87;;;3.27;;
15799;SDS011;8002;51.196;7.010;2024-01-16T13:25:54;7.73;;;3.90;;
15799;SDS011;8002;51.196;7.010;2024-01-16T13:28:23;6.47;;;3.03;;
15799;SDS011;8002;51.196;7.010;2024-01-16T13:30:50;5.00;;;3.50;;
15799;SDS011;8002;51.196;7.010;2024-01-16T13:33:17;3.90;;;3.10;;
15799;SDS011;8002;51.196;7.010;2024-01-16T13:35:44;4.47;;;3.33;;
15799;SDS011;8002;51.196;7.010;2024-01-16T13:38:12;4.67;;;3.57;;
15799;SDS011;8002;51.196;7.010;2024-01-16T13:40:38;7.23;;;3.37;;
15799;SDS011;8002;51.196;7.010;2024-01-16T13:43:05;6.00;;;3.40;;
15799;SDS011;8002;51.196;7.010;2024-01-16T13:45:33;9.03;;;3.13;;
15799;SDS011;8002;51.196;7.010;2024-01-16T13:48:01;5.50;;;2.90;;
15799;SDS011;8002;51.196;7.010;2024-01-16T13:50:27;6.90;;;3.17;;
15799;SDS011;8002;51.196;7.010;2024-01-16T13:52:55;5.80;;;3.97;;
15799;SDS011;8002;51.196;7.010;2024-01-16T13:55:21;5.87;;;3.50;;
15799;SDS011;8002;51.196;7.010;2024-01-16T13:57:47;7.37;;;3.53;;
15799;SDS011;8002;51.196;7.010;2024-01-16T14:00:14;7.63;;;3.50;;
15799;SDS011;8002;51.196;7.010;2024-01-16T14:02:42;7.23;;;3.80;;
15799;SDS011;8002;51.196;7.010;2024-01-16T14:05:09;5.27;;;3.33;;
15799;SDS011;8002;51.196;7.010;2024-01-16T14:07:36;7.60;;;3.33;;
15799;SDS011;8002;51.196;7.010;2024-01-16T14:10:04;6.20;;;3.50;;
15799;SDS011;8002;51.196;7.010;2024-01-16T14:12:31;7.43;;;3.67;;
15799;SDS011;8002;51.196;7.010;2024-01-16T14:14:57;6.70;;;3.57;;
15799;SDS011;8002;51.196;7.010;2024-01-16T14:17:25;7.37;;;4.13;;
15799;SDS011;8002;51.196;7.010;2024-01-16T14:19:53;7.70;;;3.33;;
15799;SDS011;8002;51.196;7.010;2024-01-16T14:22:20;4.77;;;3.50;;
15799;SDS011;8002;51.196;7.010;2024-01-16T14:24:46;6.10;;;3.40;;
15799;SDS011;8002;51.196;7.010;2024-01-16T14:27:16;4.80;;;3.10;;
15799;SDS011;8002;51.196;7.010;2024-01-16T14:29:42;7.00;;;4.07;;
15799;SDS011;8002;51.196;7.010;2024-01-16T14:32:08;9.27;;;3.70;;
15799;SDS011;8002;51.196;7.010;2024-01-16T14:34:35;3.87;;;2.97;;
15799;SDS011;8002;51.196;7.010;2024-01-16T14:37:02;6.03;;;3.53;;
15799;SDS011;8002;51.196;7.010;2024-01-16T14:39:30;5.40;;;3.37;;
15799;SDS011;8002;51.196;7.010;2024-01-16T14:41:56;6.50;;;3.43;;
15799;SDS011;8002;51.196;7.010;2024-01-16T14:44:23;5.00;;;3.97;;
15799;SDS011;8002;51.196;7.010;2024-01-16T14:46:50;7.27;;;3.17;;
15799;SDS011;8002;51.196;7.010;2024-01-16T14:49:19;6.40;;;3.27;;
15799;SDS011;8002;51.196;7.010;2024-01-16T14:51:46;4.23;;;3.43;;
15799;SDS011;8002;51.196;7.010;2024-01-16T14:54:13;5.67;;;3.80;;
15799;SDS011;8002;51.196;7.010;2024-01-16T14:56:40;5.27;;;3.63;;
15799;SDS011;8002;51.196;7.010;2024-01-16T14:59:06;5.07;;;3.27;;
15799;SDS011;8002;51.196;7.010;2024-01-16T15:01:34;5.37;;;3.50;;